Bushnell, Illinois
Current Conditions -  °F | °C
As of 12:55 AM on Sunday 21 Dec 2014 (Local Time) from KMQB Reporting Station
Haze Haze  
Wind Chill: -1°   Ceiling: 3300
Heat Index:   Visibility: 5mi
Dew Point:   Wind: 6mph
Humidity: 95%   Direction: 170°S
Pressure: 30.21"   Gusts: NA
Location:  40.55°N, 90.51°W
Report Text: KMQB 210655Z AUTO 17005KT 5SM BR OVC033 02/01 A3021 RMK AO2 T00170010
Loading
Personal Weather Stations






























Interactive Weather Map New forecast layout! Learn more

10-Day Weather Forecast

Advertisements
Track Severe Weather on mobile